Flight Track Log - Related Links

Times and Time Zones

All times are in EDT time to prevent confusion due to time zone crossing. See the VH-LMD flight status page for this flight to view local times or setup timezone preferences in your user account.

Time Position Orientation Groundspeed Altitude Reporting Facility
EDT Latitude Longitude Course Direction KTS MPH feet Rate Location/Type
Thu 05:26:45 PM -27.1691 153.0593 357° North 103 119 1,400  Level Aus ATC (RADAR)
Thu 05:27:35 PM -27.1409 153.0579 357° North 123 142 1,600 333 Climbing Aus ATC (RADAR)
Thu 05:28:15 PM -27.1146 153.0564 357° North 138 159 1,900 491 Climbing Aus ATC (RADAR)
Thu 05:29:25 PM -27.0728 153.0558 359° North 130 150 2,500 500 Climbing Aus ATC (RADAR)
Thu 05:30:15 PM -27.0421 153.0546 358° North 131 151 2,900 494 Climbing Aus ATC (RADAR)
Thu 05:30:50 PM -27.0202 153.0536 358° North 135 155 3,200 480 Climbing Aus ATC (RADAR)
Thu 05:31:30 PM -26.9948 153.0510 355° North 138 159 3,500 480 Climbing Aus ATC (RADAR)
Thu 05:32:05 PM -26.9722 153.0482 354° North 139 160 3,800 554 Climbing Aus ATC (RADAR)
Thu 05:32:35 PM -26.9528 153.0467 356° North 140 161 4,100 500 Climbing Aus ATC (RADAR)
Thu 05:33:05 PM -26.9338 153.0429 350° North 138 159 4,300 554 Climbing Aus ATC (RADAR)
Thu 05:33:40 PM -26.9102 153.0438 North 143 165 4,700 606 Climbing Aus ATC (RADAR)
Thu 05:34:44 PM -26.8684 153.0382 353° North 139 160 5,300 532 Climbing Aus ATC (RADAR)
Thu 05:35:44 PM -26.8293 153.0347 356° North 140 161 5,800 514 Climbing Aus ATC (RADAR)
Thu 05:36:29 PM -26.8007 153.0311 353° North 139 160 6,200 600 Climbing Aus ATC (RADAR)
Thu 05:37:04 PM -26.7789 153.0276 352° North 135 155 6,600 320 Climbing Aus ATC (RADAR)
Thu 05:37:44 PM -26.7516 153.0240 353° North 150 173 6,600  Level Aus ATC (RADAR)
Thu 05:38:44 PM -26.7067 153.0185 354° North 162 186 6,600  Level Aus ATC (RADAR)
Thu 05:39:54 PM -26.6533 153.0149 357° North 164 189 6,600  Level Aus ATC (RADAR)
Thu 05:40:49 PM -26.6117 153.0110 355° North 162 186 6,600  Level Aus ATC (RADAR)
Thu 05:41:34 PM -26.5779 153.0080 355° North 163 188 6,600  Level Aus ATC (RADAR)
Thu 05:42:34 PM -26.5334 153.0020 353° North 161 185 6,600  Level Aus ATC (RADAR)
Thu 05:43:14 PM -26.5031 152.9999 356° North 163 188 6,600  Level Aus ATC (RADAR)
Thu 05:43:49 PM -26.4769 152.9973 355° North 162 186 6,600  Level Aus ATC (RADAR)
Thu 05:44:59 PM -26.4245 152.9929 356° North 162 186 6,600  Level Aus ATC (RADAR)
Thu 05:45:59 PM -26.3790 152.9910 358° North 164 189 6,600  Level Aus ATC (RADAR)
Thu 05:46:44 PM -26.3451 152.9868 354° North 166 191 6,600  Level Aus ATC (RADAR)
Thu 05:47:38 PM -26.3033 152.9826 355° North 165 190 6,600  Level Aus ATC (RADAR)
Thu 05:48:23 PM -26.2691 152.9764 351° North 167 192 6,600  Level Aus ATC (RADAR)
Thu 05:48:53 PM -26.2460 152.9729 352° North 167 192 6,600  Level Aus ATC (RADAR)
Thu 05:50:13 PM -26.1840 152.9683 356° North 167 192 6,600  Level Aus ATC (RADAR)
Thu 05:51:13 PM -26.1381 152.9632 354° North 166 191 6,600  Level Aus ATC (RADAR)
Thu 05:51:58 PM -26.1031 152.9587 353° North 168 193 6,600  Level Aus ATC (RADAR)
Thu 05:52:28 PM -26.0801 152.9549 352° North 166 191 6,600  Level Aus ATC (RADAR)
Thu 05:53:03 PM -26.0531 152.9517 354° North 167 192 6,600  Level Aus ATC (RADAR)
Thu 05:53:38 PM -26.0258 152.9497 356° North 168 193 6,600  Level Aus ATC (RADAR)
Thu 05:54:48 PM -25.9721 152.9429 353° North 166 191 6,600  Level Aus ATC (RADAR)
Thu 05:55:23 PM -25.9453 152.9395 354° North 164 189 6,600  Level Aus ATC (RADAR)
Thu 05:56:18 PM -25.9029 152.9384 359° North 165 190 6,600 -60 Level Aus ATC (RADAR)
Thu 05:57:03 PM -25.8686 152.9345 354° North 165 190 6,500 -304 Descending Aus ATC (RADAR)
Thu 05:57:37 PM -25.8406 152.9317 355° North 172 198 6,200 -469 Descending Aus ATC (RADAR)
Thu 05:58:07 PM -25.8165 152.9287 354° North 175 201 6,000 -257 Descending Aus ATC (RADAR)
Thu 05:58:47 PM -25.7830 152.9261 356° North 181 208 5,900 -300 Descending Aus ATC (RADAR)
Thu 05:59:27 PM -25.7509 152.9203 351° North 176 203 5,600 -400 Descending Aus ATC (RADAR)
Thu 06:00:32 PM -25.6962 152.9149 355° North 186 214 5,200 -467 Descending Aus ATC (RADAR)
Thu 06:01:52 PM -25.6293 152.9112 357° North 181 208 -522 Descending Aus ATC (RADAR)
Thu 06:02:27 PM -25.6010 152.9052 349° North 179 206 4,200 7,200 Climbing Aus ATC (RADAR)
Thu 06:04:00 PM -25.5416 152.8999 355° North  Level Estimated
Thu 06:11:00 PM -25.3189 152.8803 355° North  Level Estimated
Thu 06:12:00 PM -25.3189 152.8803 299° West  Level Estimated
Thu 06:13:00 PM -25.3189 152.8803 299° West  Level Estimated
Thu 06:14:00 PM -25.3189 152.8803 299° West  Level Estimated
Thu 06:15:00 PM -25.3189 152.8803 299° West  Level Estimated

Login

Don't have an account? Register now (free) for customized features, flight alerts, and more!